Time;durP1;ratioP1;P1;durP2;ratioP2;P2;SDS_P1;SDS_P2;PMS_P1;PMS_P2;Temp;Humidity;BMP_temperature;BMP_pressure;BME280_temperature;BME280_humidity;BME280_pressure;Samples;Min_cycle;Max_cycle;Signal;HPM_P1;HPM_P2
2021/06/10 00:01:12;;;;;;;1.50;0.90;;;19.10;89.10;;;;;;5038500;28;20505;-78
2021/06/10 00:03:38;;;;;;;1.50;0.90;;;19.00;89.20;;;;;;5048467;28;20458;-79
2021/06/10 00:06:05;;;;;;;1.50;1.00;;;19.00;89.10;;;;;;5024294;28;20459;-78
2021/06/10 00:08:32;;;;;;;1.50;1.00;;;19.00;90.50;;;;;;5046334;28;20532;-78
2021/06/10 00:10:59;;;;;;;1.50;0.90;;;18.90;89.90;;;;;;5036502;28;20501;-78
2021/06/10 00:13:30;;;;;;;1.50;0.90;;;18.90;90.00;;;;;;5047555;28;20461;-78
2021/06/10 00:15:57;;;;;;;1.50;0.90;;;18.90;90.10;;;;;;5042047;28;20462;-77
2021/06/10 00:18:23;;;;;;;1.50;1.00;;;18.80;90.80;;;;;;5051858;28;20489;-77
2021/06/10 00:20:49;;;;;;;1.50;0.90;;;18.80;90.70;;;;;;5019603;28;20599;-77
2021/06/10 00:23:15;;;;;;;1.50;0.90;;;18.70;90.60;;;;;;5037447;28;20459;-77
2021/06/10 00:25:42;;;;;;;1.50;0.90;;;18.70;90.50;;;;;;5029127;28;20467;-77
2021/06/10 00:28:08;;;;;;;1.50;0.90;;;18.70;90.50;;;;;;5028592;28;20490;-77
2021/06/10 00:30:36;;;;;;;1.50;1.00;;;18.60;90.50;;;;;;5029341;28;20574;-77
2021/06/10 00:33:04;;;;;;;1.50;1.00;;;18.60;91.00;;;;;;5038274;28;20498;-77
2021/06/10 00:35:31;;;;;;;1.50;1.00;;;18.60;90.80;;;;;;5041104;28;20468;-77
2021/06/10 00:37:59;;;;;;;1.50;1.00;;;18.60;91.10;;;;;;5026502;28;20482;-77
2021/06/10 00:40:26;;;;;;;1.50;0.90;;;18.50;91.40;;;;;;5045898;28;20996;-78
2021/06/10 00:42:53;;;;;;;1.50;0.90;;;18.50;91.50;;;;;;5038171;28;20486;-78
2021/06/10 00:45:21;;;;;;;1.50;1.00;;;18.50;91.80;;;;;;5051691;28;20463;-78
2021/06/10 00:47:50;;;;;;;1.50;0.90;;;18.50;92.40;;;;;;5039375;28;20474;-78
2021/06/10 00:50:18;;;;;;;1.50;0.90;;;18.50;92.50;;;;;;5053632;28;20517;-78
2021/06/10 00:52:46;;;;;;;1.50;0.90;;;18.50;93.10;;;;;;5040961;28;20474;-78
2021/06/10 00:55:14;;;;;;;1.70;1.20;;;18.50;93.30;;;;;;5048464;28;20517;-78
2021/06/10 00:57:40;;;;;;;1.50;0.90;;;18.50;94.30;;;;;;5039779;28;20482;-78
2021/06/10 01:00:08;;;;;;;1.50;0.90;;;18.60;93.70;;;;;;5042584;28;20482;-78
2021/06/10 01:02:34;;;;;;;1.50;1.10;;;18.50;93.60;;;;;;5044510;28;20489;-78
2021/06/10 01:05:02;;;;;;;1.50;1.00;;;18.50;93.60;;;;;;5052772;28;20470;-78
2021/06/10 01:07:35;;;;;;;1.50;1.00;;;18.50;93.40;;;;;;5044810;28;20482;-78
2021/06/10 01:10:05;;;;;;;1.50;0.90;;;18.50;93.90;;;;;;5044462;28;20559;-78
2021/06/10 01:12:41;;;;;;;1.50;0.90;;;18.50;94.60;;;;;;5045325;28;20478;-78
2021/06/10 01:15:10;;;;;;;1.50;0.90;;;18.40;94.20;;;;;;5055939;28;20480;-78
2021/06/10 01:17:43;;;;;;;1.50;1.00;;;18.40;94.60;;;;;;5032808;28;20827;-78
2021/06/10 01:20:14;;;;;;;1.50;0.90;;;18.40;94.00;;;;;;5050556;28;20601;-78
2021/06/10 01:22:44;;;;;;;1.50;0.90;;;18.40;94.50;;;;;;5046106;28;20474;-78
2021/06/10 01:25:32;;;;;;;1.50;1.00;;;18.40;94.50;;;;;;5061155;28;20973;-78
2021/06/10 01:28:03;;;;;;;1.50;0.90;;;18.30;94.30;;;;;;5042759;28;20493;-78
2021/06/10 01:30:37;;;;;;;1.50;0.90;;;18.30;94.80;;;;;;5046286;28;20511;-78
2021/06/10 01:33:08;;;;;;;1.50;0.90;;;18.30;95.30;;;;;;5049622;28;20482;-78
2021/06/10 01:35:38;;;;;;;1.50;1.00;;;18.20;95.20;;;;;;5061580;28;20458;-78
2021/06/10 01:38:05;;;;;;;1.50;1.00;;;18.20;95.30;;;;;;5034753;28;20888;-78
2021/06/10 01:40:32;;;;;;;1.50;0.90;;;18.10;95.00;;;;;;5056265;28;20493;-78
2021/06/10 01:43:01;;;;;;;1.50;1.00;;;18.10;95.20;;;;;;5037276;28;20490;-78
2021/06/10 01:45:28;;;;;;;1.50;1.00;;;18.10;96.60;;;;;;5057366;28;20783;-78
2021/06/10 01:47:56;;;;;;;1.50;1.00;;;18.00;96.90;;;;;;5029940;28;20522;-78
2021/06/10 01:50:23;;;;;;;1.50;0.90;;;18.00;96.80;;;;;;5054831;28;20526;-78
2021/06/10 01:52:52;;;;;;;1.50;1.10;;;18.00;96.90;;;;;;5036290;28;20483;-78
2021/06/10 01:55:22;;;;;;;1.50;1.00;;;18.00;96.40;;;;;;5051172;28;21062;-77
2021/06/10 01:57:49;;;;;;;1.50;1.00;;;17.90;96.10;;;;;;5044122;28;20500;-78
2021/06/10 02:00:19;;;;;;;1.50;1.00;;;17.90;96.80;;;;;;5049007;28;20475;-77
2021/06/10 02:02:46;;;;;;;1.50;0.90;;;17.90;96.60;;;;;;5043898;28;20993;-77
2021/06/10 02:05:15;;;;;;;1.50;0.90;;;17.90;96.40;;;;;;5045416;28;20534;-78
2021/06/10 02:07:43;;;;;;;1.50;1.00;;;17.80;96.80;;;;;;5054432;28;20477;-77
2021/06/10 02:10:13;;;;;;;1.50;0.90;;;17.80;96.00;;;;;;5064344;28;20486;-78
2021/06/10 02:12:40;;;;;;;1.50;1.00;;;17.80;96.10;;;;;;5028958;28;20487;-77
2021/06/10 02:15:10;;;;;;;1.47;0.90;;;17.80;95.80;;;;;;5052286;28;20458;-77
2021/06/10 02:17:38;;;;;;;1.50;0.90;;;17.80;96.00;;;;;;5037371;28;20493;-78
2021/06/10 02:20:06;;;;;;;1.50;1.00;;;17.80;96.20;;;;;;5053850;28;20474;-78
2021/06/10 02:22:34;;;;;;;1.50;0.93;;;17.80;95.80;;;;;;5046548;28;20482;-78
2021/06/10 02:25:00;;;;;;;1.50;0.90;;;17.70;95.90;;;;;;5055780;28;20957;-78
2021/06/10 02:27:27;;;;;;;1.50;1.00;;;17.70;96.30;;;;;;5045626;28;20470;-78
2021/06/10 02:29:53;;;;;;;1.50;0.90;;;17.70;95.90;;;;;;5055482;28;20489;-78
2021/06/10 02:32:19;;;;;;;1.50;0.90;;;17.70;96.10;;;;;;5045983;28;20481;-78
2021/06/10 02:34:47;;;;;;;1.50;0.90;;;17.70;96.50;;;;;;5055000;28;20473;-78
2021/06/10 02:37:17;;;;;;;1.50;1.00;;;17.70;96.20;;;;;;5046354;28;20478;-77
2021/06/10 02:39:46;;;;;;;1.50;0.90;;;17.70;96.00;;;;;;5036123;28;20525;-78
2021/06/10 02:42:18;;;;;;;1.50;0.90;;;17.70;95.90;;;;;;5035123;28;20864;-78
2021/06/10 02:44:47;;;;;;;1.50;0.90;;;17.80;95.60;;;;;;5051334;28;20482;-78
2021/06/10 02:47:15;;;;;;;1.50;0.90;;;17.80;96.10;;;;;;5040012;28;21146;-78
2021/06/10 02:49:43;;;;;;;1.50;0.90;;;17.80;95.90;;;;;;5052062;28;20489;-77
2021/06/10 02:52:12;;;;;;;1.40;0.90;;;17.80;95.30;;;;;;5033792;28;20975;-78
2021/06/10 02:54:39;;;;;;;1.50;0.90;;;17.80;94.70;;;;;;5047767;28;20462;-78
2021/06/10 02:57:08;;;;;;;1.50;0.90;;;17.70;93.90;;;;;;5039628;28;20580;-77
2021/06/10 02:59:35;;;;;;;1.50;1.00;;;17.70;94.10;;;;;;5052577;28;20482;-78
2021/06/10 03:02:02;;;;;;;1.50;0.90;;;17.70;94.00;;;;;;5032075;28;20483;-78
2021/06/10 03:04:29;;;;;;;1.50;1.00;;;17.70;94.10;;;;;;5048735;28;20462;-78
2021/06/10 03:06:57;;;;;;;1.50;0.90;;;17.60;94.70;;;;;;5039128;28;20541;-77
2021/06/10 03:09:26;;;;;;;1.50;0.90;;;17.60;94.60;;;;;;5055834;28;20501;-77
2021/06/10 03:11:54;;;;;;;1.50;1.00;;;17.60;95.50;;;;;;5046802;28;20485;-78
2021/06/10 03:14:21;;;;;;;1.50;1.00;;;17.60;95.60;;;;;;5045323;28;20957;-78
2021/06/10 03:16:48;;;;;;;1.50;1.00;;;17.50;96.00;;;;;;5040300;28;20478;-77
2021/06/10 03:19:16;;;;;;;1.50;1.00;;;17.50;95.70;;;;;;5063710;28;20553;-77
2021/06/10 03:21:43;;;;;;;1.50;0.90;;;17.50;95.70;;;;;;5035776;28;20483;-77
2021/06/10 03:24:10;;;;;;;1.50;0.90;;;17.50;95.70;;;;;;5038184;28;20992;-78
2021/06/10 03:26:39;;;;;;;1.50;0.90;;;17.50;95.60;;;;;;5042398;28;21054;-78
2021/06/10 03:29:06;;;;;;;1.50;0.90;;;17.50;95.70;;;;;;5041550;28;20494;-78
2021/06/10 03:31:34;;;;;;;1.50;1.00;;;17.50;95.80;;;;;;5040207;28;20476;-78
2021/06/10 03:34:01;;;;;;;1.50;1.00;;;17.50;95.20;;;;;;5047191;28;20549;-78
2021/06/10 03:36:29;;;;;;;1.50;1.00;;;17.50;95.20;;;;;;5038068;28;20478;-78
2021/06/10 03:38:56;;;;;;;1.50;0.90;;;17.50;95.50;;;;;;5040123;28;20581;-78
2021/06/10 03:41:23;;;;;;;1.50;1.00;;;17.50;95.50;;;;;;5043872;28;20953;-78
2021/06/10 03:43:51;;;;;;;1.50;1.00;;;17.40;95.60;;;;;;5053927;28;20544;-78
2021/06/10 03:46:18;;;;;;;1.50;0.90;;;17.40;95.70;;;;;;5045657;28;20470;-78
2021/06/10 03:48:45;;;;;;;1.50;0.90;;;17.40;96.30;;;;;;5055325;28;20565;-78
2021/06/10 03:51:11;;;;;;;1.50;0.90;;;17.40;96.00;;;;;;5044413;28;20483;-78
2021/06/10 03:53:38;;;;;;;1.50;0.97;;;17.40;96.40;;;;;;5054178;28;20485;-78
2021/06/10 03:56:05;;;;;;;1.50;0.90;;;17.40;96.30;;;;;;5043075;28;20910;-78
2021/06/10 03:58:32;;;;;;;1.50;1.00;;;17.40;96.50;;;;;;5057418;28;20592;-78
2021/06/10 04:00:59;;;;;;;1.50;0.90;;;17.40;96.90;;;;;;5044698;28;20454;-79
2021/06/10 04:03:26;;;;;;;1.50;0.93;;;17.40;96.50;;;;;;5047101;28;20554;-79
2021/06/10 04:05:52;;;;;;;1.50;1.00;;;17.40;96.30;;;;;;5028789;28;21001;-78
2021/06/10 04:08:19;;;;;;;1.50;0.90;;;17.40;95.90;;;;;;5062529;28;20518;-79
2021/06/10 04:10:45;;;;;;;1.50;1.00;;;17.40;95.60;;;;;;5053511;28;20828;-79
2021/06/10 04:13:12;;;;;;;1.50;0.90;;;17.40;96.00;;;;;;5040075;28;20485;-79
2021/06/10 04:15:38;;;;;;;1.50;0.90;;;17.40;95.40;;;;;;5055387;28;20467;-79
2021/06/10 04:18:06;;;;;;;1.50;1.00;;;17.40;95.80;;;;;;5043825;28;21024;-78
2021/06/10 04:20:32;;;;;;;1.50;1.00;;;17.40;96.00;;;;;;5052781;28;20541;-79
2021/06/10 04:22:59;;;;;;;1.50;1.00;;;17.40;96.20;;;;;;5029084;28;21317;-79
2021/06/10 04:25:25;;;;;;;1.50;0.90;;;17.40;96.00;;;;;;5051415;28;20507;-79
2021/06/10 04:27:52;;;;;;;1.50;1.00;;;17.40;95.80;;;;;;5056379;28;20489;-79
2021/06/10 04:30:19;;;;;;;1.50;1.00;;;17.40;95.70;;;;;;5074512;28;20485;-79
2021/06/10 04:32:46;;;;;;;1.50;1.00;;;17.40;95.50;;;;;;5025268;28;20557;-79
2021/06/10 04:35:15;;;;;;;1.50;1.00;;;17.40;95.20;;;;;;5051410;28;20498;-79
2021/06/10 04:37:41;;;;;;;1.50;1.00;;;17.50;94.80;;;;;;5027224;28;20486;-79
2021/06/10 04:40:09;;;;;;;1.50;1.00;;;17.60;94.70;;;;;;5053739;28;20486;-80
2021/06/10 04:42:35;;;;;;;1.50;1.00;;;17.60;95.10;;;;;;5036971;28;20550;-79
2021/06/10 04:45:02;;;;;;;1.50;1.00;;;17.70;94.70;;;;;;5052966;28;20488;-79
2021/06/10 04:47:28;;;;;;;1.50;1.00;;;17.90;95.30;;;;;;5053451;28;20477;-79
2021/06/10 04:49:54;;;;;;;1.50;0.90;;;18.00;95.10;;;;;;5053143;28;20553;-79
2021/06/10 04:52:23;;;;;;;1.50;1.00;;;18.20;95.20;;;;;;5049827;28;20505;-79
2021/06/10 04:54:49;;;;;;;1.50;0.90;;;18.40;94.00;;;;;;5053712;28;20865;-78
2021/06/10 04:57:16;;;;;;;1.50;0.97;;;18.60;94.20;;;;;;5032830;28;20478;-78
2021/06/10 04:59:42;;;;;;;1.50;0.90;;;18.80;93.50;;;;;;5046751;28;20515;-79
2021/06/10 05:02:09;;;;;;;1.50;0.90;;;19.00;92.50;;;;;;5030220;28;20566;-78
2021/06/10 05:04:38;;;;;;;1.50;0.90;;;19.20;92.00;;;;;;5047691;28;20449;-79
2021/06/10 05:07:05;;;;;;;1.50;1.00;;;19.40;91.90;;;;;;5031129;28;21037;-79
2021/06/10 05:09:33;;;;;;;1.50;0.90;;;19.60;91.40;;;;;;5045810;28;20521;-79
2021/06/10 05:11:59;;;;;;;1.50;0.90;;;19.80;90.90;;;;;;5043240;28;20518;-79
2021/06/10 05:14:25;;;;;;;1.50;0.90;;;19.80;89.90;;;;;;5051721;28;20830;-80
2021/06/10 05:16:53;;;;;;;1.50;0.90;;;20.00;90.30;;;;;;5044919;28;20482;-79
2021/06/10 05:19:19;;;;;;;1.50;0.90;;;20.10;89.60;;;;;;5055177;28;20474;-79
2021/06/10 05:21:46;;;;;;;1.50;0.90;;;20.20;89.50;;;;;;5035502;28;20577;-79
2021/06/10 05:24:13;;;;;;;1.50;0.90;;;20.40;88.80;;;;;;5045322;28;20643;-79
2021/06/10 05:26:41;;;;;;;1.50;0.90;;;20.60;89.10;;;;;;5038920;28;20481;-79
2021/06/10 05:29:08;;;;;;;1.50;0.93;;;20.80;87.50;;;;;;5051829;28;20497;-79
2021/06/10 05:31:34;;;;;;;1.50;1.00;;;20.90;87.30;;;;;;5042870;28;21053;-79
2021/06/10 05:34:01;;;;;;;1.50;0.90;;;21.20;86.70;;;;;;5053708;28;20884;-79
2021/06/10 05:36:27;;;;;;;1.50;1.00;;;21.30;85.70;;;;;;5036222;28;20478;-79
2021/06/10 05:38:53;;;;;;;1.50;0.90;;;21.30;85.60;;;;;;5053323;28;20490;-79
2021/06/10 05:41:20;;;;;;;1.50;0.90;;;21.50;85.40;;;;;;5046873;28;20553;-79
2021/06/10 05:43:48;;;;;;;1.50;0.90;;;21.60;83.80;;;;;;5062090;28;20468;-79
2021/06/10 05:46:15;;;;;;;1.50;0.90;;;21.80;83.90;;;;;;5047108;28;20607;-78
2021/06/10 05:48:41;;;;;;;1.50;0.90;;;21.90;84.30;;;;;;5051617;28;20492;-79
2021/06/10 05:51:07;;;;;;;1.50;0.90;;;22.10;84.90;;;;;;5042568;28;21169;-78
2021/06/10 05:53:35;;;;;;;1.50;0.90;;;22.30;82.50;;;;;;5045330;28;20459;-79
2021/06/10 05:56:02;;;;;;;1.50;0.90;;;22.40;81.80;;;;;;5033375;28;21120;-78
2021/06/10 05:58:29;;;;;;;1.50;0.90;;;22.50;80.90;;;;;;5037020;28;20477;-79
2021/06/10 06:00:56;;;;;;;1.50;0.90;;;22.70;80.40;;;;;;5040740;28;20457;-79
2021/06/10 06:03:23;;;;;;;1.50;0.90;;;22.80;80.40;;;;;;5036526;28;20462;-78
2021/06/10 06:05:49;;;;;;;1.50;0.90;;;23.00;78.40;;;;;;5030372;28;20525;-78
2021/06/10 06:08:16;;;;;;;1.50;0.90;;;23.10;79.70;;;;;;5048159;28;20949;-80
2021/06/10 06:10:45;;;;;;;1.50;0.90;;;23.40;78.60;;;;;;5044276;28;20859;-79
2021/06/10 06:13:11;;;;;;;1.50;0.90;;;23.70;77.20;;;;;;5027264;28;20501;-79
2021/06/10 06:15:38;;;;;;;1.50;0.83;;;24.00;76.70;;;;;;5056184;28;21064;-79
2021/06/10 06:18:06;;;;;;;1.50;0.90;;;24.20;75.90;;;;;;5047117;28;20474;-78
2021/06/10 06:20:32;;;;;;;1.50;0.90;;;24.40;74.90;;;;;;5052628;28;20475;-79
2021/06/10 06:22:58;;;;;;;1.50;0.90;;;24.50;74.70;;;;;;5033149;28;20554;-79
2021/06/10 06:25:25;;;;;;;1.50;0.90;;;24.50;74.50;;;;;;5034675;28;20462;-80
2021/06/10 06:27:51;;;;;;;1.50;0.90;;;24.60;74.30;;;;;;5037357;28;20529;-79
2021/06/10 06:30:18;;;;;;;1.50;0.90;;;24.70;74.50;;;;;;5052656;28;20494;-79
2021/06/10 06:32:44;;;;;;;1.50;0.90;;;24.80;73.70;;;;;;5037688;28;20510;-80
2021/06/10 06:35:13;;;;;;;1.50;0.90;;;25.00;73.20;;;;;;5035697;28;20463;-79
2021/06/10 06:37:39;;;;;;;1.50;0.90;;;25.30;71.60;;;;;;5038659;28;20475;-80
2021/06/10 06:40:08;;;;;;;1.50;0.90;;;25.60;72.40;;;;;;5048138;28;20835;-79
2021/06/10 06:42:34;;;;;;;1.50;0.87;;;25.80;70.90;;;;;;5024191;28;21029;-80
2021/06/10 06:45:01;;;;;;;1.50;0.90;;;26.00;71.00;;;;;;5050471;28;20469;-81
2021/06/10 06:47:27;;;;;;;1.50;0.90;;;26.20;70.60;;;;;;5045687;28;20565;-82
2021/06/10 06:49:53;;;;;;;1.50;0.90;;;26.40;70.60;;;;;;5042978;28;20594;-83
2021/06/10 06:52:21;;;;;;;1.50;0.90;;;26.30;69.70;;;;;;5038266;28;20486;-82
2021/06/10 06:54:47;;;;;;;1.50;0.90;;;26.30;70.30;;;;;;5059512;28;20549;-82
2021/06/10 06:57:14;;;;;;;1.60;1.10;;;26.40;70.00;;;;;;5033620;28;20497;-82
2021/06/10 06:59:40;;;;;;;1.50;0.90;;;26.40;71.50;;;;;;5057435;28;20481;-82
2021/06/10 07:02:07;;;;;;;1.50;0.90;;;26.70;71.30;;;;;;5038978;28;20493;-81
2021/06/10 07:04:34;;;;;;;1.50;0.90;;;26.90;71.10;;;;;;5053880;28;20792;-81
2021/06/10 07:07:00;;;;;;;1.50;0.80;;;27.00;69.90;;;;;;5041808;28;20520;-83
2021/06/10 07:09:28;;;;;;;1.50;0.80;;;27.10;69.60;;;;;;5051010;28;20631;-82
2021/06/10 07:11:54;;;;;;;1.50;0.90;;;27.30;70.30;;;;;;5047033;28;21111;-83
2021/06/10 07:14:20;;;;;;;1.47;0.80;;;27.30;70.60;;;;;;5049655;28;20953;-83
2021/06/10 07:16:47;;;;;;;1.43;0.80;;;27.30;70.90;;;;;;5043083;28;20484;-81
2021/06/10 07:19:13;;;;;;;1.50;0.80;;;27.50;71.20;;;;;;5054602;28;21028;-81
2021/06/10 07:21:44;;;;;;;1.50;0.90;;;27.60;70.20;;;;;;5037376;28;20486;-82
2021/06/10 07:24:10;;;;;;;1.50;0.87;;;27.70;69.70;;;;;;5042315;28;20534;-82
2021/06/10 07:26:38;;;;;;;1.43;0.80;;;27.90;69.00;;;;;;5037814;28;20491;-81
2021/06/10 07:29:04;;;;;;;1.50;0.80;;;27.90;70.30;;;;;;5047308;28;20490;-81
2021/06/10 07:31:31;;;;;;;1.50;0.80;;;27.90;68.90;;;;;;5042828;28;21033;-81
2021/06/10 07:33:57;;;;;;;1.50;0.80;;;28.00;70.40;;;;;;5054552;28;20576;-81
2021/06/10 07:36:25;;;;;;;1.40;0.80;;;28.10;71.00;;;;;;5040500;28;20576;-81
2021/06/10 07:38:51;;;;;;;1.50;0.80;;;28.20;69.60;;;;;;5048846;28;20953;-81
2021/06/10 07:41:17;;;;;;;1.50;0.90;;;28.40;69.30;;;;;;5036417;28;20530;-82
2021/06/10 07:43:45;;;;;;;1.50;0.90;;;28.60;68.70;;;;;;5050517;28;20569;-82
2021/06/10 07:46:11;;;;;;;1.50;0.90;;;28.70;67.70;;;;;;5045599;28;20646;-81
2021/06/10 07:48:38;;;;;;;1.50;0.87;;;28.60;65.70;;;;;;5055426;28;20478;-82
2021/06/10 07:51:06;;;;;;;1.50;0.80;;;28.70;68.40;;;;;;5042329;28;20515;-81
2021/06/10 07:53:33;;;;;;;1.47;0.80;;;28.80;67.90;;;;;;5042031;28;20485;-80
2021/06/10 07:55:59;;;;;;;1.50;0.80;;;28.90;68.10;;;;;;5043400;28;20933;-81
2021/06/10 07:58:26;;;;;;;1.50;0.80;;;29.10;67.40;;;;;;5051393;28;20454;-81
2021/06/10 08:00:54;;;;;;;1.50;0.90;;;29.20;66.40;;;;;;5032155;28;20461;-81
2021/06/10 08:03:20;;;;;;;1.43;0.80;;;29.10;66.60;;;;;;5048433;28;20466;-82
2021/06/10 08:05:47;;;;;;;1.50;0.80;;;29.10;66.90;;;;;;5042756;28;20465;-82
2021/06/10 08:08:13;;;;;;;1.47;0.80;;;29.10;67.30;;;;;;5052494;28;20472;-82
2021/06/10 08:10:40;;;;;;;1.47;0.80;;;29.20;66.70;;;;;;5052982;28;20968;-82
2021/06/10 08:13:08;;;;;;;1.50;0.80;;;29.30;66.20;;;;;;5043415;28;20479;-82
2021/06/10 08:15:35;;;;;;;1.43;0.90;;;29.40;67.00;;;;;;5054311;28;20485;-83
2021/06/10 08:18:03;;;;;;;1.43;0.80;;;29.30;66.50;;;;;;5030846;28;20491;-83
2021/06/10 08:20:31;;;;;;;1.50;0.80;;;29.30;67.00;;;;;;5060312;28;21197;-83
2021/06/10 08:22:59;;;;;;;1.50;0.90;;;29.20;67.00;;;;;;5028353;28;20539;-83
2021/06/10 08:25:28;;;;;;;1.50;0.80;;;29.40;67.50;;;;;;5053234;28;20461;-81
2021/06/10 08:27:54;;;;;;;1.43;0.80;;;29.50;67.90;;;;;;5025867;28;20536;-82
2021/06/10 08:30:21;;;;;;;1.43;0.80;;;29.80;67.70;;;;;;5054008;28;20576;-82
2021/06/10 08:32:48;;;;;;;1.50;0.90;;;29.90;66.50;;;;;;5044217;28;20485;-83
2021/06/10 08:35:16;;;;;;;1.47;0.80;;;29.90;65.00;;;;;;5056350;28;20458;-82
2021/06/10 08:37:42;;;;;;;1.47;0.90;;;29.70;65.60;;;;;;5045189;28;20485;-83
2021/06/10 08:40:10;;;;;;;1.50;0.90;;;29.90;66.10;;;;;;5057708;28;20493;-82
2021/06/10 08:42:37;;;;;;;1.47;0.80;;;30.00;65.10;;;;;;5047455;28;20509;-82
2021/06/10 08:45:04;;;;;;;1.47;0.80;;;30.20;65.30;;;;;;5053680;28;20461;-81
2021/06/10 08:47:32;;;;;;;1.43;0.80;;;30.20;64.20;;;;;;5040894;28;20534;-80
2021/06/10 08:50:03;;;;;;;1.50;0.80;;;30.30;63.20;;;;;;5052285;28;20496;-83
2021/06/10 08:52:32;;;;;;;1.47;0.80;;;30.40;65.10;;;;;;5043554;28;21095;-83
2021/06/10 08:54:58;;;;;;;1.47;0.80;;;30.50;63.40;;;;;;5057028;28;20479;-82
2021/06/10 08:57:24;;;;;;;1.50;0.90;;;30.60;63.80;;;;;;5034840;28;20489;-84
2021/06/10 08:59:51;;;;;;;1.43;0.80;;;30.80;61.20;;;;;;5053322;28;20484;-82
2021/06/10 09:02:18;;;;;;;1.47;0.80;;;30.60;62.50;;;;;;5041339;28;20961;-84
2021/06/10 09:04:44;;;;;;;1.50;0.80;;;30.50;61.70;;;;;;5051938;28;20545;-83
2021/06/10 09:07:11;;;;;;;1.47;0.80;;;30.40;62.80;;;;;;5051255;28;20478;-81
2021/06/10 09:09:41;;;;;;;1.43;0.80;;;30.50;63.20;;;;;;5057416;28;20496;-82
2021/06/10 09:12:09;;;;;;;1.43;0.80;;;30.70;62.60;;;;;;5027995;28;20525;-83
2021/06/10 09:14:52;;;;;;;1.43;0.90;;;30.90;62.80;;;;;;5052456;28;20501;-82
2021/06/10 09:17:32;;;;;;;1.47;0.83;;;31.00;62.00;;;;;;5048085;28;20489;-82
2021/06/10 09:19:59;;;;;;;1.43;0.90;;;31.20;61.70;;;;;;5060168;28;20860;-82
2021/06/10 09:22:29;;;;;;;1.47;0.80;;;31.20;61.50;;;;;;5046742;28;20478;-83
2021/06/10 09:25:08;;;;;;;1.43;0.80;;;31.40;60.60;;;;;;5056585;28;20203;-83
2021/06/10 09:27:49;;;;;;;1.47;0.80;;;31.40;62.20;;;;;;5039333;28;20482;-84
2021/06/10 09:30:28;;;;;;;1.43;0.80;;;31.50;61.10;;;;;;5056701;28;20489;-83
2021/06/10 09:32:54;;;;;;;1.47;0.90;;;31.50;61.40;;;;;;5046158;28;20318;-83
2021/06/10 09:35:27;;;;;;;1.43;0.80;;;31.50;61.90;;;;;;5055258;28;20246;-83
2021/06/10 09:37:57;;;;;;;1.80;1.53;;;31.40;60.30;;;;;;5046251;28;20549;-81
2021/06/10 09:40:25;;;;;;;1.47;0.80;;;31.50;60.80;;;;;;5057140;28;20231;-82
2021/06/10 09:42:52;;;;;;;1.50;0.80;;;31.50;60.10;;;;;;5037865;28;20257;-82
2021/06/10 09:45:21;;;;;;;1.47;0.80;;;31.50;61.20;;;;;;5066103;28;20210;-81
2021/06/10 09:47:51;;;;;;;1.47;0.80;;;31.50;61.60;;;;;;5051820;28;20235;-82
2021/06/10 09:50:20;;;;;;;1.40;0.80;;;31.40;62.20;;;;;;5051519;28;20482;-82
2021/06/10 09:52:49;;;;;;;1.43;0.80;;;31.40;60.40;;;;;;5040795;28;20238;-81
2021/06/10 09:55:29;;;;;;;1.47;0.90;;;31.50;61.40;;;;;;5063869;28;20199;-81
2021/06/10 09:57:55;;;;;;;1.50;0.80;;;31.50;61.00;;;;;;5049900;28;20410;-81
2021/06/10 10:00:25;;;;;;;1.43;0.80;;;31.60;61.40;;;;;;5062463;28;20273;-81
2021/06/10 10:02:52;;;;;;;1.43;0.83;;;31.60;60.40;;;;;;5049944;28;20233;-82
2021/06/10 10:05:22;;;;;;;1.50;0.80;;;31.70;60.20;;;;;;5065267;28;20205;-82
2021/06/10 10:07:49;;;;;;;1.47;0.80;;;31.80;59.80;;;;;;5050215;28;20486;-81
2021/06/10 10:10:15;;;;;;;1.43;0.80;;;32.00;60.60;;;;;;5051214;28;20567;-83
2021/06/10 10:12:44;;;;;;;1.43;0.80;;;32.00;59.90;;;;;;5026830;28;20232;-82
2021/06/10 10:15:12;;;;;;;1.43;0.80;;;32.00;61.60;;;;;;5053950;28;20262;-82
2021/06/10 10:17:38;;;;;;;1.47;0.80;;;31.90;61.60;;;;;;5046790;28;20235;-82
2021/06/10 10:20:07;;;;;;;1.40;0.80;;;31.90;61.10;;;;;;5064897;28;20576;-81
2021/06/10 10:22:35;;;;;;;1.40;0.80;;;31.90;59.80;;;;;;5042878;28;20231;-82
2021/06/10 10:25:02;;;;;;;1.47;0.87;;;31.90;60.50;;;;;;5039799;28;20764;-84
2021/06/10 10:27:29;;;;;;;1.40;0.80;;;32.00;60.30;;;;;;5043645;28;20231;-81
2021/06/10 10:29:57;;;;;;;1.43;0.80;;;32.00;59.90;;;;;;5054478;28;20480;-82
2021/06/10 10:32:25;;;;;;;2.33;1.63;;;32.10;61.60;;;;;;5044555;28;20249;-82
2021/06/10 10:34:52;;;;;;;1.40;0.80;;;32.20;61.00;;;;;;5054354;28;20237;-82
2021/06/10 10:37:24;;;;;;;1.43;0.80;;;32.30;59.80;;;;;;5040902;28;20314;-83
2021/06/10 10:39:53;;;;;;;1.47;0.90;;;32.30;59.70;;;;;;5046604;28;20270;-83
2021/06/10 10:42:31;;;;;;;1.43;0.80;;;32.30;61.00;;;;;;5037948;28;20611;-86
2021/06/10 10:45:14;;;;;;;1.50;1.00;;;32.10;58.70;;;;;;5054716;28;20298;-83
2021/06/10 10:47:42;;;;;;;1.50;0.90;;;31.90;61.20;;;;;;5045238;28;20311;-83
2021/06/10 10:50:09;;;;;;;1.43;0.80;;;31.90;61.00;;;;;;5055143;28;20243;-82
2021/06/10 10:52:38;;;;;;;1.40;0.80;;;32.00;61.30;;;;;;5042670;28;20257;-85
2021/06/10 10:55:19;;;;;;;1.40;0.80;;;32.00;61.70;;;;;;5038355;28;20290;-84
2021/06/10 10:57:46;;;;;;;1.43;0.80;;;32.10;61.00;;;;;;5026050;28;20926;-83
2021/06/10 11:00:21;;;;;;;1.50;1.00;;;32.30;61.90;;;;;;5059967;28;20220;-84
2021/06/10 11:03:17;;;;;;;1.47;0.80;;;32.40;60.10;;;;;;5044325;28;20375;-83
2021/06/10 11:05:44;;;;;;;1.47;0.80;;;32.50;60.40;;;;;;5049787;28;20249;-84
2021/06/10 11:08:11;;;;;;;1.47;0.80;;;32.60;59.90;;;;;;5028322;28;20234;-83
2021/06/10 11:11:03;;;;;;;1.50;0.80;;;32.60;60.60;;;;;;5057325;28;20333;-84
2021/06/10 11:13:47;;;;;;;1.50;0.80;;;32.60;60.20;;;;;;5029939;28;20217;-83
2021/06/10 11:16:15;;;;;;;1.50;0.80;;;32.60;59.80;;;;;;5044444;28;20223;-84
2021/06/10 11:18:51;;;;;;;1.40;0.80;;;32.80;59.60;;;;;;5055666;28;20223;-83
2021/06/10 11:21:49;;;;;;;1.50;0.80;;;33.00;60.50;;;;;;5039988;28;20671;-84
2021/06/10 11:24:17;;;;;;;1.50;0.80;;;33.20;58.40;;;;;;5012031;28;20218;-83
2021/06/10 11:26:48;;;;;;;1.40;0.80;;;33.40;59.50;;;;;;5043810;28;20235;-85
2021/06/10 11:29:16;;;;;;;1.48;0.80;;;33.50;58.10;;;;;;5053373;28;20227;-82
2021/06/10 11:31:44;;;;;;;1.48;0.80;;;33.50;58.80;;;;;;5037879;28;20238;-83
2021/06/10 11:34:30;;;;;;;1.45;0.80;;;33.70;57.50;;;;;;5053205;28;20211;-85
2021/06/10 11:36:57;;;;;;;1.40;0.80;;;33.80;57.40;;;;;;5042267;28;20219;-86
2021/06/10 11:39:28;;;;;;;1.40;0.80;;;33.90;58.10;;;;;;5056771;28;20227;-86
2021/06/10 11:42:05;;;;;;;1.45;0.80;;;33.90;56.90;;;;;;5044113;28;20255;-83
2021/06/10 11:44:44;;;;;;;1.45;0.80;;;33.90;57.70;;;;;;5041796;28;20203;-86
2021/06/10 11:47:29;;;;;;;1.45;0.80;;;34.00;59.00;;;;;;5045098;28;20606;-82
2021/06/10 11:49:55;;;;;;;1.45;0.80;;;34.10;59.10;;;;;;5048694;28;20235;-82
2021/06/10 11:52:22;;;;;;;1.40;0.80;;;34.20;57.70;;;;;;5041679;28;20722;-82
2021/06/10 11:55:06;;;;;;;1.40;0.80;;;34.20;56.00;;;;;;5052909;28;20216;-81
2021/06/10 11:57:32;;;;;;;1.40;0.80;;;34.10;58.10;;;;;;5025290;28;20232;-83
2021/06/10 12:00:08;;;;;;;1.40;0.80;;;34.10;57.10;;;;;;5051086;28;20239;-85
2021/06/10 12:02:37;;;;;;;1.45;0.80;;;33.90;56.50;;;;;;5041559;28;20223;-83
2021/06/10 12:05:21;;;;;;;1.50;1.00;;;33.70;57.90;;;;;;5051857;28;20227;-82
2021/06/10 12:07:47;;;;;;;1.40;0.80;;;33.50;58.40;;;;;;5045399;28;20281;-82
2021/06/10 12:10:20;;;;;;;1.40;0.80;;;33.40;59.20;;;;;;5058129;28;20273;-83
2021/06/10 12:12:49;;;;;;;1.40;0.80;;;33.40;58.30;;;;;;5039417;28;20242;-84
2021/06/10 12:15:34;;;;;;;1.48;0.80;;;33.50;58.20;;;;;;5051978;28;20760;-82
2021/06/10 12:18:04;;;;;;;1.42;0.80;;;33.60;56.10;;;;;;5024725;28;20223;-80
2021/06/10 12:20:32;;;;;;;1.40;0.80;;;33.60;57.00;;;;;;5054588;28;20223;-82
2021/06/10 12:22:59;;;;;;;1.40;0.80;;;33.80;58.00;;;;;;5040472;28;20242;-82
2021/06/10 12:25:27;;;;;;;1.40;0.80;;;33.90;58.00;;;;;;5049708;28;20206;-82
2021/06/10 12:27:54;;;;;;;1.45;0.80;;;34.10;57.80;;;;;;5024929;28;20307;-82
2021/06/10 12:30:26;;;;;;;1.48;0.80;;;34.20;56.80;;;;;;5052757;28;20223;-83
2021/06/10 12:32:53;;;;;;;1.70;1.08;;;34.10;57.60;;;;;;5043135;28;20280;-84
2021/06/10 12:35:22;;;;;;;1.40;0.80;;;34.20;56.10;;;;;;5055082;28;20310;-82
2021/06/10 12:37:52;;;;;;;1.40;0.80;;;34.30;57.50;;;;;;5041412;28;20261;-83
2021/06/10 12:40:19;;;;;;;1.40;0.80;;;34.40;56.90;;;;;;5053962;28;20234;-82
2021/06/10 12:43:08;;;;;;;1.40;0.80;;;34.50;57.10;;;;;;5040794;28;20279;-83
2021/06/10 12:45:35;;;;;;;1.40;0.80;;;34.50;55.10;;;;;;5051427;28;20203;-84
2021/06/10 12:48:01;;;;;;;1.42;0.80;;;34.30;55.40;;;;;;5026652;28;20314;-81
2021/06/10 12:50:29;;;;;;;1.40;0.80;;;34.30;56.10;;;;;;5052740;28;21020;-82
2021/06/10 12:52:56;;;;;;;1.40;0.80;;;34.50;56.20;;;;;;5027522;28;20272;-83
2021/06/10 12:55:27;;;;;;;1.40;0.90;;;34.60;55.90;;;;;;5054499;28;20218;-83